Main page
METAR-TAF:

METAR-TAF

Airports :

Harbin Taiping International Airport

Harbin, China

latitude: 45-45N, longitude: 126-46E, elevation: 143 m

Current weather observation

The report was made 1 hour and 17 minutes ago, at 09:00 UTC
Wind 4 kt from the West
Temperature -13°C
Humidity 78%
Pressure 1016 hPa
Visibility: 2000 m
mist

METAR: ZYHB 190900Z 28002MPS 2000 BR NSC M13/M16 Q1016 NOSIG

Time: 18:17 (10:17 UTC)

Forecast

The report was made 7 hours and 14 minutes ago, at 03:03 UTC
Forecast valid from 19 at 06 UTC to 20 at 06 UTC
Wind 6 kt from the West/Northwest
Visibility: 3000 m
Scattered clouds at a height of 2000 ft
haze
Becoming
from 19 at 06 UTC to 19 at 08 UTC
Visibility: 2000 m
Becoming
from 19 at 09 UTC to 19 at 11 UTC
Visibility: 1200 m

TAF: ZYHB 190303Z 1906/2006 30003MPS 3000 HZ SCT020 TXM11/1906Z TNM22/1922Z BECMG 1906/1908 2000 BECMG 1909/1911 1200

Weather observations and forecasts of more than 4000 airports (METAR and TAF reports).

The available stations are represented by yellow and red dots on the map.

Hover mouse over dot to see the name of the station.

Then click to see weather observations and forecasts.

To change the map : click on the green buttons with a black cross to zoom in, on the green button with a dash to zoom out, or on the green arrows for adjacent maps.


METAR-TAF: